createdAt,value
2023-04-05T00:01:35.935Z,39.19
2023-04-05T00:04:05.237Z,38.76
2023-04-05T00:06:34.702Z,38.11
2023-04-05T00:09:05.034Z,38.72
2023-04-05T00:11:33.386Z,38.65
2023-04-05T00:14:02.269Z,38.56
2023-04-05T00:16:31.204Z,38.44
2023-04-05T00:19:02.150Z,38.19
2023-04-05T00:21:31.819Z,38.08
2023-04-05T00:24:00.120Z,38.70
2023-04-05T00:26:28.977Z,38.72
2023-04-05T00:28:59.486Z,38.57
2023-04-05T00:31:29.262Z,38.89
2023-04-05T00:33:57.329Z,38.77
2023-04-05T00:36:26.998Z,38.97
2023-04-05T00:38:55.496Z,38.88
2023-04-05T00:41:23.766Z,38.97
2023-04-05T00:43:52.377Z,38.72
2023-04-05T00:46:22.239Z,38.32
2023-04-05T00:48:51.173Z,38.57
2023-04-05T00:51:20.289Z,38.89
2023-04-05T00:53:52.966Z,39.07
2023-04-05T00:56:21.966Z,39.42
2023-04-05T00:58:52.321Z,39.42
2023-04-05T01:01:22.389Z,39.62
2023-04-05T01:03:54.335Z,39.84
2023-04-05T01:06:27.765Z,39.82
2023-04-05T01:09:12.217Z,39.80
2023-04-05T01:11:40.750Z,39.82
2023-04-05T01:14:08.723Z,39.69
2023-04-05T01:16:37.314Z,39.33
2023-04-05T01:19:05.324Z,38.61
2023-04-05T01:21:39.671Z,38.61
2023-04-05T01:24:15.040Z,39.01
2023-04-05T01:27:05.763Z,39.11
2023-04-05T01:29:53.480Z,38.60
2023-04-05T01:32:42.799Z,38.51
2023-04-05T01:35:38.952Z,38.87
2023-04-05T01:38:07.641Z,38.90
2023-04-05T01:40:36.980Z,38.93
2023-04-05T01:43:17.740Z,38.98
2023-04-05T01:45:46.705Z,39.04
2023-04-05T01:48:14.939Z,39.34
2023-04-05T01:50:43.387Z,39.03
2023-04-05T01:53:11.641Z,39.06
2023-04-05T01:58:11.334Z,47.97
2023-04-05T02:00:39.724Z,44.82
2023-04-05T02:03:09.089Z,44.00
2023-04-05T02:05:37.464Z,43.65
2023-04-05T02:08:06.296Z,43.34
2023-04-05T02:10:34.848Z,43.24
2023-04-05T02:13:03.017Z,43.61
2023-04-05T02:15:33.128Z,43.44
2023-04-05T02:18:02.373Z,42.91
2023-04-05T02:20:30.585Z,42.75
2023-04-05T02:23:00.601Z,42.52
2023-04-05T02:25:30.521Z,42.33
2023-04-05T02:28:00.448Z,42.34
2023-04-05T02:30:29.131Z,42.39
2023-04-05T02:32:58.100Z,42.11
2023-04-05T02:35:32.265Z,41.91
2023-04-05T02:38:02.160Z,42.35
2023-04-05T02:40:30.499Z,42.50
2023-04-05T02:42:58.716Z,42.26
2023-04-05T02:45:27.938Z,42.31
2023-04-05T02:47:57.868Z,42.41
2023-04-05T02:50:26.895Z,41.85
2023-04-05T02:52:56.547Z,41.97
2023-04-05T02:55:24.869Z,41.99
2023-04-05T02:57:53.376Z,41.80
2023-04-05T03:00:34.079Z,41.37
2023-04-05T03:03:02.810Z,41.10
2023-04-05T03:05:31.916Z,40.98
2023-04-05T03:08:02.416Z,41.03
2023-04-05T03:10:36.348Z,41.25
2023-04-05T03:13:11.704Z,41.38
2023-04-05T03:15:42.346Z,41.31
2023-04-05T03:18:12.159Z,41.07
2023-04-05T03:20:41.562Z,41.08
2023-04-05T03:23:16.699Z,40.87
2023-04-05T03:25:45.703Z,40.63
2023-04-05T03:28:18.388Z,40.72
2023-04-05T03:30:50.352Z,40.92
2023-04-05T03:33:21.204Z,40.71
2023-04-05T03:35:51.931Z,40.53
2023-04-05T03:38:22.031Z,40.30
2023-04-05T03:41:26.144Z,40.49
2023-04-05T03:43:54.420Z,40.49
2023-04-05T03:46:23.860Z,40.39
2023-04-05T03:48:53.145Z,40.55
2023-04-05T03:51:21.727Z,40.43
2023-04-05T03:53:51.641Z,40.27
2023-04-05T03:56:21.009Z,40.24
2023-04-05T03:58:50.859Z,39.99
2023-04-05T04:01:20.987Z,39.93
2023-04-05T04:03:49.840Z,39.52
2023-04-05T04:06:19.398Z,39.48
2023-04-05T04:08:50.812Z,39.43
2023-04-05T04:11:18.903Z,39.56
2023-04-05T04:13:48.615Z,39.77
2023-04-05T04:16:29.019Z,40.12
2023-04-05T04:19:23.049Z,40.67
2023-04-05T04:22:03.384Z,40.78
2023-04-05T04:25:11.293Z,40.71
2023-04-05T04:27:58.929Z,40.83
2023-04-05T04:30:51.205Z,40.74
2023-04-05T04:33:55.601Z,40.37
2023-04-05T04:37:00.867Z,40.24
2023-04-05T04:39:39.766Z,40.02
2023-04-05T04:42:38.870Z,39.90
2023-04-05T04:45:11.730Z,40.00
2023-04-05T04:47:58.084Z,39.62
2023-04-05T04:50:49.768Z,40.07
2023-04-05T04:53:18.838Z,39.95
2023-04-05T04:55:50.415Z,40.09
2023-04-05T04:58:19.927Z,40.10
2023-04-05T05:00:54.615Z,39.98
2023-04-05T05:03:24.725Z,39.79
2023-04-05T05:05:53.919Z,39.59
2023-04-05T05:08:25.290Z,39.82
2023-04-05T05:10:53.845Z,39.85
2023-04-05T05:13:22.483Z,39.62
2023-04-05T05:15:50.638Z,39.62
2023-04-05T05:18:18.737Z,39.65
2023-04-05T05:20:50.593Z,39.84
2023-04-05T05:23:18.743Z,39.80
2023-04-05T05:25:47.555Z,39.65
2023-04-05T05:28:16.802Z,40.02
2023-04-05T05:30:45.456Z,39.80
2023-04-05T05:33:16.201Z,39.81
2023-04-05T05:35:44.467Z,39.74
2023-04-05T05:38:15.354Z,39.80
2023-04-05T05:40:43.821Z,39.58
2023-04-05T05:43:13.050Z,39.62
2023-04-05T05:45:41.220Z,39.72
2023-04-05T05:48:09.809Z,39.36
2023-04-05T05:50:39.503Z,39.36
2023-04-05T05:53:09.324Z,39.44
2023-04-05T05:55:37.341Z,39.50
2023-04-05T05:58:07.841Z,39.44
2023-04-05T06:00:36.622Z,39.23
2023-04-05T06:03:14.532Z,39.62
2023-04-05T06:05:51.477Z,39.89
2023-04-05T06:08:19.576Z,40.29
2023-04-05T06:10:48.882Z,40.16
2023-04-05T06:13:17.207Z,40.03
2023-04-05T06:15:46.654Z,40.10
2023-04-05T06:18:14.984Z,39.98
2023-04-05T06:20:44.643Z,39.93
2023-04-05T06:23:19.249Z,39.99
2023-04-05T06:25:48.982Z,40.18
2023-04-05T06:28:17.200Z,40.26
2023-04-05T06:30:46.799Z,40.15
2023-04-05T06:33:16.053Z,40.37
2023-04-05T06:35:44.005Z,40.50
2023-04-05T06:38:12.547Z,40.44
2023-04-05T06:40:41.028Z,40.78
2023-04-05T06:43:13.263Z,40.75
2023-04-05T06:45:42.726Z,40.37
2023-04-05T06:48:11.527Z,40.32
2023-04-05T06:50:41.225Z,40.01
2023-04-05T06:53:09.524Z,40.08
2023-04-05T06:55:42.726Z,40.01
2023-04-05T06:58:10.980Z,40.15
2023-04-05T07:00:40.374Z,40.12
2023-04-05T07:03:26.293Z,39.94
2023-04-05T07:06:02.709Z,39.79
2023-04-05T07:08:34.198Z,39.79
2023-04-05T07:11:02.738Z,40.04
2023-04-05T07:13:32.392Z,40.33
2023-04-05T07:16:02.184Z,39.88
2023-04-05T07:18:31.682Z,39.49
2023-04-05T07:21:01.912Z,39.72
2023-04-05T07:23:34.823Z,39.55
2023-04-05T07:26:04.951Z,39.37
2023-04-05T07:28:34.196Z,39.15
2023-04-05T07:31:04.230Z,39.37
2023-04-05T07:33:32.972Z,39.46
2023-04-05T07:36:01.298Z,39.59
2023-04-05T07:38:31.075Z,39.07
2023-04-05T07:40:59.679Z,38.94
2023-04-05T07:43:27.716Z,38.76
2023-04-05T07:46:03.440Z,38.91
2023-04-05T07:48:31.674Z,39.41
2023-04-05T07:51:07.395Z,39.25
2023-04-05T07:53:37.236Z,39.48
2023-04-05T07:56:07.444Z,39.67
2023-04-05T07:58:35.706Z,39.80
2023-04-05T08:01:04.051Z,39.93
2023-04-05T08:03:35.699Z,39.69
2023-04-05T08:06:14.500Z,39.48
2023-04-05T08:08:42.464Z,39.59
2023-04-05T08:11:11.868Z,39.53
2023-04-05T08:13:43.851Z,39.74
2023-04-05T08:16:11.955Z,40.09
2023-04-05T08:18:42.489Z,39.84
2023-04-05T08:21:10.479Z,39.39
2023-04-05T08:23:39.549Z,39.54
2023-04-05T08:26:08.005Z,40.09
2023-04-05T08:28:36.346Z,40.29
2023-04-05T08:31:05.291Z,40.08
2023-04-05T08:33:34.642Z,40.34
2023-04-05T08:36:09.661Z,40.09
2023-04-05T08:38:38.689Z,40.02
2023-04-05T08:41:18.464Z,39.90
2023-04-05T08:43:47.615Z,40.14
2023-04-05T08:46:17.035Z,40.23
2023-04-05T08:48:46.009Z,40.01
2023-04-05T08:51:18.423Z,40.07
2023-04-05T08:53:47.250Z,40.28
2023-04-05T08:56:16.303Z,40.25
2023-04-05T08:58:49.627Z,40.17
2023-04-05T09:01:18.132Z,40.54
2023-04-05T09:03:48.350Z,40.56
2023-04-05T09:06:16.625Z,40.50
2023-04-05T09:08:44.658Z,40.39
2023-04-05T09:11:12.940Z,40.14
2023-04-05T09:13:41.055Z,40.10
2023-04-05T09:16:09.296Z,39.53
2023-04-05T09:18:42.097Z,39.58
2023-04-05T09:21:12.283Z,39.48
2023-04-05T09:23:52.117Z,39.35
2023-04-05T09:26:25.193Z,39.19
2023-04-05T09:28:57.642Z,39.68
2023-04-05T09:31:30.832Z,39.57
2023-04-05T09:34:02.069Z,39.70
2023-04-05T09:36:34.070Z,39.68
2023-04-05T09:39:06.899Z,39.50
2023-04-05T09:41:35.838Z,39.48
2023-04-05T09:44:04.156Z,39.77
2023-04-05T09:46:34.570Z,40.51
2023-04-05T09:49:04.166Z,40.29
2023-04-05T09:51:39.407Z,40.31
2023-04-05T09:54:11.131Z,40.37
2023-04-05T09:56:40.650Z,40.32
2023-04-05T09:59:11.130Z,40.19
2023-04-05T10:01:43.774Z,40.56
2023-04-05T10:04:12.950Z,40.46
2023-04-05T10:06:43.785Z,40.45
2023-04-05T10:09:15.475Z,40.73
2023-04-05T10:11:45.209Z,40.56
2023-04-05T10:14:13.457Z,39.87
2023-04-05T10:16:54.488Z,39.15
2023-04-05T10:19:28.847Z,39.10
2023-04-05T10:21:58.020Z,39.38
2023-04-05T10:24:40.841Z,39.59
2023-04-05T10:27:13.543Z,39.44
2023-04-05T10:29:56.330Z,39.11
2023-04-05T10:32:32.061Z,39.32
2023-04-05T10:35:16.385Z,38.90
2023-04-05T10:38:02.447Z,38.85
2023-04-05T10:40:32.549Z,38.54
2023-04-05T10:43:01.265Z,38.35
2023-04-05T10:45:29.976Z,38.52
2023-04-05T10:48:07.129Z,38.56
2023-04-05T10:50:37.105Z,38.53
2023-04-05T10:53:05.448Z,38.63
2023-04-05T10:55:34.383Z,38.69
2023-04-05T10:58:02.876Z,38.80
2023-04-05T11:00:32.166Z,39.09
2023-04-05T11:03:01.744Z,38.90
2023-04-05T11:05:34.564Z,39.10
2023-04-05T11:08:04.995Z,39.09
2023-04-05T11:10:37.871Z,38.64
2023-04-05T11:13:08.829Z,38.30
2023-04-05T11:15:37.188Z,38.67
2023-04-05T11:18:16.067Z,37.95
2023-04-05T11:21:03.680Z,37.88
2023-04-05T11:24:10.166Z,37.86
2023-04-05T11:26:44.633Z,37.30
2023-04-05T11:29:12.541Z,37.46
2023-04-05T11:32:01.013Z,37.28
2023-04-05T11:34:29.046Z,36.81
2023-04-05T11:36:56.945Z,36.34
2023-04-05T11:39:25.550Z,35.80
2023-04-05T11:42:07.029Z,36.28
2023-04-05T11:44:48.394Z,36.75
2023-04-05T11:47:18.142Z,36.41
2023-04-05T11:49:47.400Z,37.23
2023-04-05T11:52:25.824Z,37.22
2023-04-05T11:54:54.902Z,36.68
2023-04-05T11:57:24.618Z,37.38
2023-04-05T11:59:53.347Z,37.52
2023-04-05T12:02:23.450Z,37.86
2023-04-05T12:04:56.572Z,37.89
2023-04-05T12:07:29.401Z,37.01
2023-04-05T12:10:01.657Z,36.31
2023-04-05T12:12:40.577Z,35.70
2023-04-05T12:15:11.065Z,35.58
2023-04-05T12:17:52.778Z,36.18
2023-04-05T12:20:25.490Z,36.50
2023-04-05T12:22:54.237Z,36.05
2023-04-05T12:25:22.343Z,36.07
2023-04-05T12:27:51.329Z,36.07
2023-04-05T12:30:23.100Z,36.32
2023-04-05T12:32:52.899Z,35.77
2023-04-05T12:35:27.211Z,35.88
2023-04-05T12:37:57.828Z,36.33
2023-04-05T12:40:25.901Z,36.55
2023-04-05T12:42:54.813Z,36.14
2023-04-05T12:45:23.429Z,35.67
2023-04-05T12:47:53.383Z,35.44
2023-04-05T12:50:29.672Z,36.13
2023-04-05T12:53:01.156Z,36.41
2023-04-05T12:55:30.006Z,36.37
2023-04-05T12:58:03.744Z,36.40
2023-04-05T13:00:32.795Z,36.42
2023-04-05T13:03:01.991Z,36.21
2023-04-05T13:05:30.383Z,35.94
2023-04-05T13:07:59.603Z,35.49
2023-04-05T13:10:27.800Z,35.11
2023-04-05T13:12:55.805Z,35.11
2023-04-05T13:15:24.846Z,34.78
2023-04-05T13:17:55.023Z,34.81
2023-04-05T13:20:24.070Z,34.59
2023-04-05T13:22:52.103Z,34.43
2023-04-05T13:25:20.634Z,34.54
2023-04-05T13:27:48.942Z,35.00
2023-04-05T13:30:17.196Z,34.73
2023-04-05T13:32:50.795Z,34.44
2023-04-05T13:35:20.146Z,34.10
2023-04-05T13:37:49.850Z,34.56
2023-04-05T13:40:18.039Z,34.84
2023-04-05T13:42:46.164Z,34.95
2023-04-05T13:45:14.920Z,35.29
2023-04-05T13:47:43.357Z,34.62
2023-04-05T13:50:11.312Z,34.59
2023-04-05T13:52:39.817Z,34.84
2023-04-05T13:55:08.360Z,35.18
2023-04-05T13:57:37.807Z,35.45
2023-04-05T14:00:07.129Z,35.11
2023-04-05T14:02:45.381Z,35.13
2023-04-05T14:05:15.577Z,35.15
2023-04-05T14:07:43.942Z,35.04
2023-04-05T14:10:13.798Z,35.10
2023-04-05T14:15:35.582Z,43.03
2023-04-05T14:18:05.411Z,40.20
2023-04-05T14:20:33.119Z,39.73
2023-04-05T14:23:01.517Z,39.41
2023-04-05T14:25:28.910Z,39.26
2023-04-05T14:27:56.210Z,38.87
2023-04-05T14:30:23.021Z,38.67
2023-04-05T14:32:50.077Z,38.64
2023-04-05T14:35:16.987Z,38.47
2023-04-05T14:37:43.541Z,38.54
2023-04-05T14:40:10.550Z,38.53
2023-04-05T14:42:48.632Z,38.80
2023-04-05T14:45:17.598Z,38.93
2023-04-05T14:47:44.375Z,38.46
2023-04-05T14:50:11.587Z,38.54
2023-04-05T14:52:39.479Z,38.13
2023-04-05T14:55:06.324Z,37.72
2023-04-05T14:57:33.104Z,37.94
2023-04-05T15:00:00.389Z,38.01
2023-04-05T15:02:27.396Z,37.66
2023-04-05T15:04:54.783Z,37.78
2023-04-05T15:07:21.569Z,37.53
2023-04-05T15:09:49.259Z,37.90
2023-04-05T15:12:20.231Z,38.39
2023-04-05T15:14:48.108Z,38.23
2023-04-05T15:17:18.219Z,38.28
2023-04-05T15:19:45.303Z,38.02
2023-04-05T15:22:12.729Z,38.44
2023-04-05T15:24:41.133Z,38.50
2023-04-05T15:27:11.198Z,38.30
2023-04-05T15:29:41.763Z,38.45
2023-04-05T15:32:08.629Z,38.19
2023-04-05T15:34:35.307Z,38.58
2023-04-05T15:37:02.327Z,38.93
2023-04-05T15:39:29.734Z,38.63
2023-04-05T15:41:57.174Z,38.51
2023-04-05T15:44:24.117Z,38.81
2023-04-05T15:46:51.274Z,38.90
2023-04-05T15:49:18.692Z,39.43
2023-04-05T15:51:45.614Z,39.02
2023-04-05T15:54:17.854Z,38.89
2023-04-05T15:56:44.679Z,39.30
2023-04-05T15:59:11.339Z,38.82
2023-04-05T16:01:38.124Z,38.56
2023-04-05T16:04:05.154Z,38.56
2023-04-05T16:06:32.768Z,38.71
2023-04-05T16:09:00.093Z,38.45
2023-04-05T16:11:27.008Z,38.78
2023-04-05T16:13:56.472Z,38.86
2023-04-05T16:16:32.393Z,38.80
2023-04-05T16:19:07.740Z,38.71
2023-04-05T16:21:35.954Z,39.50
2023-04-05T16:24:03.371Z,39.67
2023-04-05T16:26:30.223Z,39.47
2023-04-05T16:28:57.324Z,39.34
2023-04-05T16:31:24.362Z,39.76
2023-04-05T16:33:52.846Z,39.81
2023-04-05T16:36:19.635Z,40.08
2023-04-05T16:38:47.406Z,40.01
2023-04-05T16:41:14.507Z,40.07
2023-04-05T16:43:41.439Z,39.87
2023-04-05T16:46:08.796Z,39.69
2023-04-05T16:48:35.877Z,40.12
2023-04-05T16:51:06.957Z,40.24
2023-04-05T16:53:35.156Z,40.32
2023-04-05T16:56:03.754Z,40.06
2023-04-05T16:58:31.792Z,40.34
2023-04-05T17:00:59.597Z,40.34
2023-04-05T17:03:26.768Z,40.26
2023-04-05T17:05:55.118Z,40.57
2023-04-05T17:08:23.688Z,41.27
2023-04-05T17:10:50.729Z,40.85
2023-04-05T17:13:17.524Z,40.49
2023-04-05T17:15:47.674Z,40.42
2023-04-05T17:18:14.378Z,40.16
2023-04-05T17:20:41.439Z,40.17
2023-04-05T17:23:08.770Z,39.61
2023-04-05T17:25:35.582Z,39.52
2023-04-05T17:28:03.546Z,39.58
2023-04-05T17:30:32.235Z,39.70
2023-04-05T17:33:00.171Z,40.01
2023-04-05T17:35:26.883Z,40.20
2023-04-05T17:37:53.592Z,40.22
2023-04-05T17:40:20.653Z,39.98
2023-04-05T17:42:47.672Z,39.93
2023-04-05T17:45:14.311Z,39.89
2023-04-05T17:47:41.953Z,39.72
2023-04-05T17:50:09.571Z,39.96
2023-04-05T17:52:36.463Z,39.58
2023-04-05T17:55:04.251Z,39.76
2023-04-05T17:57:31.104Z,39.99
2023-04-05T17:59:58.637Z,40.27
2023-04-05T18:02:26.946Z,40.54
2023-04-05T18:04:53.840Z,40.57
2023-04-05T18:07:22.822Z,40.43
2023-04-05T18:09:50.187Z,40.36
2023-04-05T18:12:17.481Z,40.18
2023-04-05T18:14:44.194Z,39.77
2023-04-05T18:17:11.454Z,40.06
2023-04-05T18:19:38.738Z,40.10
2023-04-05T18:22:05.529Z,40.34
2023-04-05T18:24:32.885Z,40.28
2023-04-05T18:26:59.750Z,40.19
2023-04-05T18:29:28.828Z,40.25
2023-04-05T18:31:59.155Z,40.35
2023-04-05T18:34:26.330Z,40.79
2023-04-05T18:36:53.450Z,40.84
2023-04-05T18:39:20.868Z,40.99
2023-04-05T18:41:48.005Z,41.28
2023-04-05T18:44:15.547Z,41.16
2023-04-05T18:46:43.540Z,41.33
2023-04-05T18:49:10.860Z,41.57
2023-04-05T18:51:37.772Z,41.18
2023-04-05T18:54:04.481Z,40.86
2023-04-05T18:56:32.474Z,40.83
2023-04-05T18:58:59.255Z,40.73
2023-04-05T19:01:26.629Z,41.14
2023-04-05T19:03:53.732Z,40.81
2023-04-05T19:06:21.820Z,40.49
2023-04-05T19:08:48.464Z,40.35
2023-04-05T19:11:17.972Z,40.39
2023-04-05T19:13:45.386Z,40.27
2023-04-05T19:16:16.613Z,40.30
2023-04-05T19:18:43.908Z,40.02
2023-04-05T19:21:17.830Z,39.49
2023-04-05T19:23:45.077Z,39.38
2023-04-05T19:26:11.979Z,39.61
2023-04-05T19:28:39.813Z,39.95
2023-04-05T19:31:07.387Z,40.09
2023-04-05T19:33:35.236Z,39.96
2023-04-05T19:36:02.128Z,40.25
2023-04-05T19:38:29.741Z,40.03
2023-04-05T19:40:57.259Z,40.05
2023-04-05T19:43:25.643Z,40.21
2023-04-05T19:45:55.829Z,40.56
2023-04-05T19:48:35.937Z,40.69
2023-04-05T19:51:05.316Z,41.23
2023-04-05T19:53:49.208Z,40.53
2023-04-05T19:56:30.439Z,39.97
2023-04-05T19:59:01.814Z,40.60
2023-04-05T20:01:30.729Z,40.19
2023-04-05T20:03:58.096Z,39.58
2023-04-05T20:06:25.400Z,39.48
2023-04-05T20:08:54.115Z,40.08
2023-04-05T20:11:21.349Z,39.99
2023-04-05T20:13:58.219Z,39.55
2023-04-05T20:16:29.982Z,40.02
2023-04-05T20:19:09.872Z,39.90
2023-04-05T20:21:37.046Z,39.62
2023-04-05T20:24:06.689Z,38.72
2023-04-05T20:26:33.861Z,39.09
2023-04-05T20:29:06.689Z,38.60
2023-04-05T20:31:38.398Z,38.44
2023-04-05T20:34:20.463Z,38.90
2023-04-05T20:36:50.076Z,38.63
2023-04-05T20:39:22.879Z,38.07
2023-04-05T20:41:49.831Z,37.74
2023-04-05T20:44:23.927Z,37.25
2023-04-05T20:46:52.595Z,37.50
2023-04-05T20:49:20.251Z,37.68
2023-04-05T20:51:50.265Z,37.30
2023-04-05T20:54:17.440Z,36.88
2023-04-05T20:56:48.499Z,36.76
2023-04-05T20:59:16.398Z,36.37
2023-04-05T21:01:43.223Z,36.08
2023-04-05T21:04:10.792Z,35.75
2023-04-05T21:06:39.123Z,36.03
2023-04-05T21:09:06.272Z,36.13
2023-04-05T21:11:35.425Z,35.72
2023-04-05T21:14:02.745Z,35.56
2023-04-05T21:16:29.907Z,35.63
2023-04-05T21:18:58.054Z,35.66
2023-04-05T21:21:25.619Z,35.72
2023-04-05T21:23:53.492Z,35.72
2023-04-05T21:26:20.637Z,35.72
2023-04-05T21:28:47.191Z,35.59
2023-04-05T21:31:13.796Z,35.33
2023-04-05T21:33:41.036Z,35.78
2023-04-05T21:36:07.798Z,35.41
2023-04-05T21:38:34.852Z,35.57
2023-04-05T21:41:01.556Z,35.21
2023-04-05T21:43:34.962Z,34.71
2023-04-05T21:46:02.336Z,34.96
2023-04-05T21:48:29.263Z,34.67
2023-04-05T21:50:56.644Z,34.53
2023-04-05T21:53:24.603Z,34.27
2023-04-05T21:55:55.778Z,34.30
2023-04-05T21:58:26.055Z,34.69
2023-04-05T22:00:52.861Z,34.29
2023-04-05T22:03:20.504Z,34.08
2023-04-05T22:05:48.140Z,34.23
2023-04-05T22:08:15.110Z,34.37
2023-04-05T22:10:43.134Z,33.94
2023-04-05T22:13:10.285Z,33.89
2023-04-05T22:15:37.648Z,33.80
2023-04-05T22:18:04.933Z,33.82
2023-04-05T22:20:32.648Z,34.14
2023-04-05T22:22:59.889Z,34.04
2023-04-05T22:25:29.236Z,33.77
2023-04-05T22:27:59.035Z,34.07
2023-04-05T22:30:28.075Z,34.38
2023-04-05T22:32:56.061Z,34.56
2023-04-05T22:35:22.758Z,34.74
2023-04-05T22:37:52.044Z,34.58
2023-04-05T22:40:19.075Z,34.76
2023-04-05T22:42:46.030Z,34.72
2023-04-05T22:45:12.590Z,34.94
2023-04-05T22:47:39.460Z,35.15
2023-04-05T22:50:08.674Z,34.99
2023-04-05T22:52:35.354Z,35.12
2023-04-05T22:55:03.594Z,35.11
2023-04-05T22:57:31.017Z,34.99
2023-04-05T22:59:57.695Z,34.96
2023-04-05T23:02:24.296Z,35.05
2023-04-05T23:04:52.741Z,35.06
2023-04-05T23:07:19.556Z,34.96
2023-04-05T23:09:46.399Z,34.80
2023-04-05T23:12:13.656Z,34.61
2023-04-05T23:14:40.818Z,34.54
2023-04-05T23:17:08.000Z,34.45
2023-04-05T23:19:34.901Z,34.53
2023-04-05T23:22:01.453Z,34.70
2023-04-05T23:24:28.388Z,34.63
2023-04-05T23:26:55.219Z,34.66
2023-04-05T23:29:25.542Z,34.58
2023-04-05T23:31:53.275Z,34.99
2023-04-05T23:34:20.151Z,35.05
2023-04-05T23:36:47.631Z,34.79
2023-04-05T23:39:14.347Z,34.58
2023-04-05T23:41:41.058Z,34.88
2023-04-05T23:44:07.699Z,34.80
2023-04-05T23:46:34.940Z,34.61
2023-04-05T23:49:03.894Z,34.66
2023-04-05T23:51:31.252Z,34.26
2023-04-05T23:53:59.811Z,34.21
2023-04-05T23:56:26.984Z,34.51
2023-04-05T23:58:54.020Z,34.61
